Time;durP1;ratioP1;P1;durP2;ratioP2;P2;SDS_P1;SDS_P2;PMS_P1;PMS_P2;Temp;Humidity;BMP_temperature;BMP_pressure;BME280_temperature;BME280_humidity;BME280_pressure;Samples;Min_cycle;Max_cycle;Signal;HPM_P1;HPM_P2
2024/04/04 00:00:18;;;;;;;6.70;6.03;;;;;;;;;;4903295;29;20193;-87
2024/04/04 00:02:44;;;;;;;8.60;6.07;;;;;;;;;;4901380;29;20468;-88
2024/04/04 00:05:11;;;;;;;6.47;6.00;;;;;;;;;;4906865;29;20895;-87
2024/04/04 00:07:37;;;;;;;6.00;5.70;;;;;;;;;;4900282;29;20403;-87
2024/04/04 00:10:03;;;;;;;7.03;6.10;;;;;;;;;;4883454;29;20703;-88
2024/04/04 00:12:29;;;;;;;6.60;6.10;;;;;;;;;;4883551;29;20427;-89
2024/04/04 00:14:55;;;;;;;9.15;6.53;;;;;;;;;;4868115;29;20198;-88
2024/04/04 00:17:21;;;;;;;6.85;6.35;;;;;;;;;;4900021;29;20177;-88
2024/04/04 00:19:47;;;;;;;6.55;6.15;;;;;;;;;;4900185;29;20183;-87
2024/04/04 00:22:13;;;;;;;7.18;6.70;;;;;;;;;;4900362;29;20549;-87
2024/04/04 00:24:39;;;;;;;7.67;7.00;;;;;;;;;;4899834;29;20269;-88
2024/04/04 00:27:06;;;;;;;6.93;6.53;;;;;;;;;;4900181;29;20410;-87
2024/04/04 00:29:32;;;;;;;7.28;6.78;;;;;;;;;;4899796;29;20466;-88
2024/04/04 00:31:58;;;;;;;7.47;6.97;;;;;;;;;;4883198;29;20527;-87
2024/04/04 00:34:24;;;;;;;7.43;6.80;;;;;;;;;;4883525;29;20431;-87
2024/04/04 00:36:50;;;;;;;7.45;6.95;;;;;;;;;;4899948;29;20543;-87
2024/04/04 00:39:16;;;;;;;6.80;6.40;;;;;;;;;;4900438;29;20179;-87
2024/04/04 00:41:42;;;;;;;7.10;6.50;;;;;;;;;;4883199;29;20194;-87
2024/04/04 00:44:08;;;;;;;7.70;7.10;;;;;;;;;;4899986;29;20474;-87
2024/04/04 00:46:34;;;;;;;7.00;6.55;;;;;;;;;;4900040;29;20832;-88
2024/04/04 00:49:01;;;;;;;6.95;6.63;;;;;;;;;;4880362;29;20202;-87
2024/04/04 00:51:27;;;;;;;7.15;6.45;;;;;;;;;;4885093;29;20186;-87
2024/04/04 00:53:54;;;;;;;7.10;6.70;;;;;;;;;;4900706;29;20538;-87
2024/04/04 00:56:20;;;;;;;6.97;6.55;;;;;;;;;;4883004;29;20186;-87
2024/04/04 00:58:47;;;;;;;7.00;6.60;;;;;;;;;;4883066;29;20186;-88
2024/04/04 01:01:13;;;;;;;7.68;7.22;;;;;;;;;;4892545;29;20272;-87
2024/04/04 01:03:39;;;;;;;7.50;7.00;;;;;;;;;;4918997;29;20225;-87
2024/04/04 01:06:05;;;;;;;7.97;7.28;;;;;;;;;;4902246;29;20245;-88
2024/04/04 01:08:33;;;;;;;9.20;6.80;;;;;;;;;;4901599;29;20182;-93
2024/04/04 01:10:59;;;;;;;7.25;6.80;;;;;;;;;;4904098;29;20501;-87
2024/04/04 01:13:25;;;;;;;7.33;6.83;;;;;;;;;;4901385;29;20286;-87
2024/04/04 01:15:51;;;;;;;7.10;6.60;;;;;;;;;;4886751;29;20437;-87
2024/04/04 01:18:20;;;;;;;7.40;6.80;;;;;;;;;;4886967;29;20179;-87
2024/04/04 01:20:46;;;;;;;6.72;6.30;;;;;;;;;;4886792;29;20195;-87
2024/04/04 01:23:13;;;;;;;9.52;6.75;;;;;;;;;;4903537;29;20297;-86
2024/04/04 01:25:39;;;;;;;6.60;6.30;;;;;;;;;;4903144;29;20187;-87
2024/04/04 01:28:05;;;;;;;6.97;6.50;;;;;;;;;;4903331;29;20276;-87
2024/04/04 01:30:31;;;;;;;7.00;6.50;;;;;;;;;;4870843;29;20538;-87
2024/04/04 01:32:57;;;;;;;11.70;7.40;;;;;;;;;;4903017;29;20899;-87
2024/04/04 01:35:23;;;;;;;7.47;6.82;;;;;;;;;;4903227;29;20227;-86
2024/04/04 01:37:49;;;;;;;8.27;6.60;;;;;;;;;;4902869;29;20205;-87
2024/04/04 01:40:15;;;;;;;7.30;6.63;;;;;;;;;;4870360;29;20419;-87
2024/04/04 01:42:40;;;;;;;7.32;6.15;;;;;;;;;;4885802;29;20475;-87
2024/04/04 01:45:07;;;;;;;7.43;6.83;;;;;;;;;;4886003;29;20191;-86
2024/04/04 01:47:33;;;;;;;7.53;6.85;;;;;;;;;;4885984;29;20502;-86
2024/04/04 01:49:59;;;;;;;7.38;6.78;;;;;;;;;;4902919;29;20278;-86
2024/04/04 01:52:25;;;;;;;7.28;6.75;;;;;;;;;;4902675;29;20669;-86
2024/04/04 01:54:51;;;;;;;7.20;6.53;;;;;;;;;;4885937;29;20191;-86
2024/04/04 01:57:17;;;;;;;7.87;7.27;;;;;;;;;;4902742;29;20759;-86
2024/04/04 01:59:43;;;;;;;6.90;6.40;;;;;;;;;;4885819;29;20429;-86
2024/04/04 02:02:09;;;;;;;7.70;6.70;;;;;;;;;;4902658;29;20422;-86
2024/04/04 02:04:35;;;;;;;8.20;6.80;;;;;;;;;;4885965;29;20454;-92
2024/04/04 02:07:00;;;;;;;6.90;6.47;;;;;;;;;;4899305;29;20792;-87
2024/04/04 02:09:27;;;;;;;7.40;6.90;;;;;;;;;;4866787;29;20432;-87
2024/04/04 02:11:54;;;;;;;7.47;6.97;;;;;;;;;;4885441;29;20521;-86
2024/04/04 02:14:20;;;;;;;6.95;6.40;;;;;;;;;;4902594;29;20185;-85
2024/04/04 02:16:46;;;;;;;6.60;6.30;;;;;;;;;;4902194;29;20179;-86
2024/04/04 02:19:12;;;;;;;6.85;6.25;;;;;;;;;;4885808;29;20182;-86
2024/04/04 02:21:38;;;;;;;6.20;6.00;;;;;;;;;;4885397;29;20205;-87
2024/04/04 02:24:11;;;;;;;6.97;6.43;;;;;;;;;;4901639;29;20510;-86
2024/04/04 02:26:37;;;;;;;6.50;6.20;;;;;;;;;;4885022;29;20632;-87
2024/04/04 02:29:04;;;;;;;6.80;6.20;;;;;;;;;;4870136;29;20230;-85
2024/04/04 02:31:30;;;;;;;8.15;6.50;;;;;;;;;;4870144;29;20187;-86
2024/04/04 02:33:56;;;;;;;6.83;6.33;;;;;;;;;;4869913;29;20356;-86
2024/04/04 02:36:24;;;;;;;6.78;6.00;;;;;;;;;;4902293;29;20451;-86
2024/04/04 02:38:50;;;;;;;6.35;5.97;;;;;;;;;;4868823;29;20546;-89
2024/04/04 02:41:17;;;;;;;6.40;6.10;;;;;;;;;;4882347;29;20270;-86
2024/04/04 02:43:43;;;;;;;6.70;6.30;;;;;;;;;;4884947;29;20214;-85
2024/04/04 02:46:09;;;;;;;7.37;6.80;;;;;;;;;;4885446;29;20655;-85
2024/04/04 02:48:35;;;;;;;6.80;6.50;;;;;;;;;;4869246;29;20439;-85
2024/04/04 02:51:02;;;;;;;6.60;6.30;;;;;;;;;;4901283;29;20502;-85
2024/04/04 02:53:28;;;;;;;6.97;6.57;;;;;;;;;;4884429;29;20183;-85
2024/04/04 02:55:54;;;;;;;7.00;6.40;;;;;;;;;;4901796;29;20187;-85
2024/04/04 02:58:21;;;;;;;7.65;7.00;;;;;;;;;;4901723;29;20178;-85
2024/04/04 03:00:47;;;;;;;6.65;6.32;;;;;;;;;;4875698;29;20186;-85
2024/04/04 03:03:13;;;;;;;7.65;6.93;;;;;;;;;;4903745;29;20220;-84
2024/04/04 03:05:43;;;;;;;7.70;7.15;;;;;;;;;;4903489;29;20186;-86
2024/04/04 03:08:09;;;;;;;8.10;7.35;;;;;;;;;;4921230;29;20549;-85
2024/04/04 03:10:36;;;;;;;9.77;8.98;;;;;;;;;;4915578;29;20600;-84
2024/04/04 03:13:03;;;;;;;8.50;7.63;;;;;;;;;;4902165;29;20187;-84
2024/04/04 03:15:29;;;;;;;11.02;8.93;;;;;;;;;;4885084;29;20194;-85
2024/04/04 03:17:55;;;;;;;9.15;8.35;;;;;;;;;;4901263;29;20197;-85
2024/04/04 03:20:21;;;;;;;8.70;8.20;;;;;;;;;;4901432;29;20262;-85
2024/04/04 03:22:47;;;;;;;10.87;9.97;;;;;;;;;;4900720;29;20474;-85
2024/04/04 03:25:13;;;;;;;9.88;9.07;;;;;;;;;;4901157;29;20449;-85
2024/04/04 03:27:39;;;;;;;8.45;7.75;;;;;;;;;;4869017;29;20666;-84
2024/04/04 03:30:05;;;;;;;8.57;7.87;;;;;;;;;;4900640;29;20235;-84
2024/04/04 03:32:32;;;;;;;8.93;8.27;;;;;;;;;;4900857;29;20426;-84
2024/04/04 03:34:58;;;;;;;8.45;7.88;;;;;;;;;;4900786;29;20179;-84
2024/04/04 03:37:24;;;;;;;8.40;7.63;;;;;;;;;;4893785;29;20187;-84
2024/04/04 03:39:50;;;;;;;7.85;7.07;;;;;;;;;;4878040;29;20210;-84
2024/04/04 03:42:17;;;;;;;7.53;7.10;;;;;;;;;;4877525;29;20184;-84
2024/04/04 03:44:43;;;;;;;7.60;7.20;;;;;;;;;;4881477;29;20211;-85
2024/04/04 03:47:09;;;;;;;7.40;7.10;;;;;;;;;;4880419;29;20250;-84
2024/04/04 03:49:35;;;;;;;7.40;6.90;;;;;;;;;;4881189;29;20227;-84
2024/04/04 03:52:01;;;;;;;7.10;6.70;;;;;;;;;;4881553;29;20912;-84
2024/04/04 03:54:27;;;;;;;7.17;6.73;;;;;;;;;;4880352;29;20451;-84
2024/04/04 03:56:53;;;;;;;7.00;6.60;;;;;;;;;;4865460;29;20459;-84
2024/04/04 03:59:19;;;;;;;6.83;6.33;;;;;;;;;;4881898;29;20893;-83
2024/04/04 04:01:45;;;;;;;6.80;6.50;;;;;;;;;;4864717;29;20424;-85
2024/04/04 04:04:11;;;;;;;6.80;6.50;;;;;;;;;;4881346;29;20483;-84
2024/04/04 04:06:37;;;;;;;6.70;6.30;;;;;;;;;;4888845;29;20888;-84
2024/04/04 04:09:03;;;;;;;6.93;6.33;;;;;;;;;;4900388;29;20427;-84
2024/04/04 04:11:29;;;;;;;6.63;6.23;;;;;;;;;;4900291;29;20424;-83
2024/04/04 04:13:56;;;;;;;5.90;5.53;;;;;;;;;;4883726;29;20459;-83
2024/04/04 04:16:22;;;;;;;6.50;5.90;;;;;;;;;;4882798;29;20490;-84
2024/04/04 04:18:49;;;;;;;7.15;6.00;;;;;;;;;;4882899;29;20666;-85
2024/04/04 04:21:21;;;;;;;6.07;5.78;;;;;;;;;;4883632;29;20650;-85
2024/04/04 04:23:51;;;;;;;6.88;6.32;;;;;;;;;;4868437;29;20230;-85
2024/04/04 04:26:17;;;;;;;6.85;5.90;;;;;;;;;;4899893;29;20523;-84
2024/04/04 04:28:44;;;;;;;6.25;5.82;;;;;;;;;;4882444;29;20187;-90
2024/04/04 04:31:28;;;;;;;5.88;5.50;;;;;;;;;;4883604;29;20219;-84
2024/04/04 04:33:55;;;;;;;8.07;5.50;;;;;;;;;;4899996;29;20197;-84
2024/04/04 04:36:25;;;;;;;6.75;6.25;;;;;;;;;;4899470;29;20171;-84
2024/04/04 04:38:51;;;;;;;5.50;5.20;;;;;;;;;;4899500;29;20175;-84
2024/04/04 04:41:18;;;;;;;5.82;5.55;;;;;;;;;;4899542;29;20210;-84
2024/04/04 04:43:46;;;;;;;6.10;5.63;;;;;;;;;;4899561;29;20219;-85
2024/04/04 04:46:12;;;;;;;5.80;5.50;;;;;;;;;;4882708;29;20191;-86
2024/04/04 04:48:38;;;;;;;5.75;5.40;;;;;;;;;;4898930;29;20181;-84
2024/04/04 04:51:04;;;;;;;6.47;5.93;;;;;;;;;;4882878;29;20594;-84
2024/04/04 04:53:30;;;;;;;5.50;5.20;;;;;;;;;;4882792;29;20277;-84
2024/04/04 04:55:56;;;;;;;5.47;5.13;;;;;;;;;;4882171;29;20222;-85
2024/04/04 04:58:22;;;;;;;5.07;4.88;;;;;;;;;;4883238;29;20421;-85
2024/04/04 05:00:52;;;;;;;5.20;4.80;;;;;;;;;;4882432;29;20282;-84
2024/04/04 05:03:21;;;;;;;5.50;5.20;;;;;;;;;;4899391;29;20997;-85
2024/04/04 05:05:47;;;;;;;6.55;6.05;;;;;;;;;;4899530;29;20253;-84
2024/04/04 05:08:13;;;;;;;5.30;5.10;;;;;;;;;;4899310;29;20178;-84
2024/04/04 05:10:39;;;;;;;5.20;4.90;;;;;;;;;;4899512;29;20183;-84
2024/04/04 05:13:06;;;;;;;5.45;5.25;;;;;;;;;;4899562;29;20517;-85
2024/04/04 05:15:32;;;;;;;6.00;5.70;;;;;;;;;;4899665;29;20179;-83
2024/04/04 05:17:58;;;;;;;5.85;5.57;;;;;;;;;;4898891;29;20647;-85
2024/04/04 05:20:24;;;;;;;6.67;6.27;;;;;;;;;;4899579;29;20269;-83
2024/04/04 05:22:50;;;;;;;6.68;6.38;;;;;;;;;;4894584;29;20813;-83
2024/04/04 05:25:16;;;;;;;7.30;6.90;;;;;;;;;;4882841;29;20237;-83
2024/04/04 05:27:42;;;;;;;7.60;7.20;;;;;;;;;;4882239;29;20426;-84
2024/04/04 05:30:10;;;;;;;8.63;7.25;;;;;;;;;;4898745;29;20479;-84
2024/04/04 05:32:37;;;;;;;7.47;7.15;;;;;;;;;;4899066;29;20542;-83
2024/04/04 05:35:04;;;;;;;7.70;7.20;;;;;;;;;;4898908;29;20271;-83
2024/04/04 05:37:29;;;;;;;8.40;7.60;;;;;;;;;;4882612;29;20195;-82
2024/04/04 05:39:55;;;;;;;7.53;6.80;;;;;;;;;;4899129;29;20258;-82
2024/04/04 05:42:21;;;;;;;9.40;7.07;;;;;;;;;;4898879;29;20419;-83
2024/04/04 05:44:47;;;;;;;9.60;8.88;;;;;;;;;;4882728;29;20419;-83
2024/04/04 05:47:13;;;;;;;10.00;9.40;;;;;;;;;;4899171;29;20191;-83
2024/04/04 05:49:39;;;;;;;9.20;8.70;;;;;;;;;;4898791;29;20416;-83
2024/04/04 05:52:05;;;;;;;9.43;8.73;;;;;;;;;;4881781;29;20454;-83
2024/04/04 05:54:31;;;;;;;10.02;8.68;;;;;;;;;;4899268;29;20427;-83
2024/04/04 05:56:57;;;;;;;9.53;8.73;;;;;;;;;;4898619;29;20190;-84
2024/04/04 05:59:23;;;;;;;10.07;9.03;;;;;;;;;;4899108;29;20446;-82
2024/04/04 06:01:49;;;;;;;8.77;8.27;;;;;;;;;;4902334;29;20438;-83
2024/04/04 06:04:15;;;;;;;9.60;8.90;;;;;;;;;;4902258;29;20474;-82
2024/04/04 06:06:43;;;;;;;9.40;8.50;;;;;;;;;;4902495;29;20175;-82
2024/04/04 06:09:11;;;;;;;8.80;8.00;;;;;;;;;;4902111;29;21026;-83
2024/04/04 06:11:36;;;;;;;9.25;8.35;;;;;;;;;;4902718;29;20186;-81
2024/04/04 06:14:03;;;;;;;9.40;8.50;;;;;;;;;;4902379;29;20195;-81
2024/04/04 06:16:28;;;;;;;9.73;8.95;;;;;;;;;;4885326;29;20960;-83
2024/04/04 06:18:55;;;;;;;10.10;9.10;;;;;;;;;;4884844;29;20289;-82
2024/04/04 06:21:20;;;;;;;11.55;8.98;;;;;;;;;;4901982;29;20419;-82
2024/04/04 06:23:46;;;;;;;8.27;7.57;;;;;;;;;;4885530;29;20222;-82
2024/04/04 06:26:12;;;;;;;9.90;8.80;;;;;;;;;;4902288;29;20409;-82
2024/04/04 06:28:38;;;;;;;10.60;9.50;;;;;;;;;;4902064;29;20423;-81
2024/04/04 06:31:05;;;;;;;9.80;8.80;;;;;;;;;;4902208;29;20423;-81
2024/04/04 06:33:31;;;;;;;9.90;9.10;;;;;;;;;;4902098;29;20206;-81
2024/04/04 06:35:57;;;;;;;9.80;8.75;;;;;;;;;;4901979;29;20429;-81
2024/04/04 06:38:23;;;;;;;9.50;8.50;;;;;;;;;;4902141;29;20250;-81
2024/04/04 06:40:50;;;;;;;9.82;8.90;;;;;;;;;;4885253;29;20443;-81
2024/04/04 06:43:15;;;;;;;10.43;9.43;;;;;;;;;;4901816;29;20694;-81
2024/04/04 06:45:42;;;;;;;10.27;8.87;;;;;;;;;;4902262;29;20264;-81
2024/04/04 06:48:08;;;;;;;10.52;8.52;;;;;;;;;;4902200;29;20495;-81
2024/04/04 06:50:34;;;;;;;8.83;8.10;;;;;;;;;;4902227;29;20207;-81
2024/04/04 06:53:02;;;;;;;9.90;8.85;;;;;;;;;;4902424;29;20411;-81
2024/04/04 06:55:28;;;;;;;9.48;8.60;;;;;;;;;;4902742;29;20179;-81
2024/04/04 06:57:54;;;;;;;8.93;7.80;;;;;;;;;;4902646;29;20182;-82
2024/04/04 07:00:20;;;;;;;8.20;7.70;;;;;;;;;;4902330;29;20191;-81
2024/04/04 07:02:46;;;;;;;9.18;8.25;;;;;;;;;;4899474;29;20482;-81
2024/04/04 07:05:12;;;;;;;9.10;8.00;;;;;;;;;;4897631;29;20526;-81
2024/04/04 07:07:38;;;;;;;10.07;8.20;;;;;;;;;;4901560;29;20451;-82
2024/04/04 07:10:07;;;;;;;8.90;8.20;;;;;;;;;;4901451;29;20202;-81
2024/04/04 07:12:33;;;;;;;8.85;8.07;;;;;;;;;;4901660;29;20207;-81
2024/04/04 07:15:00;;;;;;;8.60;7.90;;;;;;;;;;4902214;29;20179;-80
2024/04/04 07:17:29;;;;;;;8.20;7.60;;;;;;;;;;4901862;29;20246;-81
2024/04/04 07:19:55;;;;;;;8.70;7.88;;;;;;;;;;4901475;29;20239;-81
2024/04/04 07:22:21;;;;;;;8.35;7.65;;;;;;;;;;4901891;29;20194;-81
2024/04/04 07:24:47;;;;;;;8.43;7.70;;;;;;;;;;4902010;29;20584;-81
2024/04/04 07:27:14;;;;;;;8.25;7.65;;;;;;;;;;4901324;29;20574;-82
2024/04/04 07:29:40;;;;;;;8.68;7.93;;;;;;;;;;4884416;29;20240;-82
2024/04/04 07:32:07;;;;;;;8.57;8.17;;;;;;;;;;4896469;29;20202;-81
2024/04/04 07:34:34;;;;;;;9.07;8.20;;;;;;;;;;4901639;29;20427;-82
2024/04/04 07:37:00;;;;;;;8.00;7.60;;;;;;;;;;4901410;29;20207;-82
2024/04/04 07:39:26;;;;;;;9.13;8.43;;;;;;;;;;4901402;29;20263;-82
2024/04/04 07:41:53;;;;;;;7.65;7.25;;;;;;;;;;4901037;29;20191;-82
2024/04/04 07:44:19;;;;;;;9.25;8.52;;;;;;;;;;4901375;29;20219;-81
2024/04/04 07:46:45;;;;;;;8.98;8.18;;;;;;;;;;4901077;29;20194;-82
2024/04/04 07:49:11;;;;;;;9.68;8.93;;;;;;;;;;4900719;29;20183;-83
2024/04/04 07:51:37;;;;;;;10.25;9.43;;;;;;;;;;4900299;29;20190;-82
2024/04/04 07:54:04;;;;;;;9.63;8.93;;;;;;;;;;4900868;29;20191;-81
2024/04/04 07:56:30;;;;;;;10.85;10.30;;;;;;;;;;4901037;29;20178;-81
2024/04/04 07:58:56;;;;;;;11.20;10.60;;;;;;;;;;4900239;29;20187;-82
2024/04/04 08:01:22;;;;;;;9.75;9.30;;;;;;;;;;4897153;29;20427;-82
2024/04/04 08:03:49;;;;;;;8.93;8.52;;;;;;;;;;4899655;29;20232;-83
2024/04/04 08:06:15;;;;;;;9.80;8.95;;;;;;;;;;4899613;29;20397;-83
2024/04/04 08:08:43;;;;;;;9.23;8.82;;;;;;;;;;4899928;29;20179;-82
2024/04/04 08:11:12;;;;;;;9.48;9.07;;;;;;;;;;4899231;29;20235;-80
2024/04/04 08:13:38;;;;;;;7.85;7.55;;;;;;;;;;4900207;29;20579;-81
2024/04/04 08:16:04;;;;;;;7.90;7.50;;;;;;;;;;4899394;29;20221;-81
2024/04/04 08:18:30;;;;;;;8.85;8.23;;;;;;;;;;4900403;29;20179;-82
2024/04/04 08:20:56;;;;;;;8.47;8.10;;;;;;;;;;4900529;29;20541;-82
2024/04/04 08:23:23;;;;;;;8.33;7.93;;;;;;;;;;4899569;29;20521;-81
2024/04/04 08:25:56;;;;;;;9.52;8.40;;;;;;;;;;4900397;29;20472;-81
2024/04/04 08:28:22;;;;;;;8.10;7.80;;;;;;;;;;4900105;29;20171;-81
2024/04/04 08:30:56;;;;;;;9.02;8.63;;;;;;;;;;4883113;29;20262;-81
2024/04/04 08:33:24;;;;;;;8.10;7.80;;;;;;;;;;4866926;29;20190;-80
2024/04/04 08:35:50;;;;;;;8.10;7.70;;;;;;;;;;4881998;29;20176;-81
2024/04/04 08:38:16;;;;;;;8.17;7.77;;;;;;;;;;4881893;29;20187;-80
2024/04/04 08:40:42;;;;;;;7.47;6.87;;;;;;;;;;4881523;29;20428;-81
2024/04/04 08:43:08;;;;;;;7.90;7.30;;;;;;;;;;4882103;29;20487;-79
2024/04/04 08:45:42;;;;;;;7.82;7.53;;;;;;;;;;4882030;29;20250;-79
2024/04/04 08:48:08;;;;;;;7.30;7.00;;;;;;;;;;4865252;29;20217;-80
2024/04/04 08:50:34;;;;;;;6.40;5.90;;;;;;;;;;4880986;29;20184;-80
2024/04/04 08:53:00;;;;;;;5.93;5.72;;;;;;;;;;4879560;29;20193;-81
2024/04/04 08:55:27;;;;;;;5.97;5.50;;;;;;;;;;4881349;29;20234;-81
2024/04/04 08:57:53;;;;;;;6.00;5.80;;;;;;;;;;4880880;29;20199;-82
2024/04/04 09:00:21;;;;;;;5.75;5.47;;;;;;;;;;4880745;29;20211;-81
2024/04/04 09:02:47;;;;;;;6.10;5.80;;;;;;;;;;4881044;29;20298;-86
2024/04/04 09:05:13;;;;;;;6.50;6.20;;;;;;;;;;4880373;29;20612;-85
2024/04/04 09:07:42;;;;;;;7.10;6.70;;;;;;;;;;4876195;29;20532;-84
2024/04/04 09:10:13;;;;;;;6.80;6.50;;;;;;;;;;4880165;29;20435;-86
2024/04/04 09:12:39;;;;;;;7.60;6.90;;;;;;;;;;4880010;29;20598;-83
2024/04/04 09:15:05;;;;;;;7.20;6.90;;;;;;;;;;4879352;29;20254;-83
2024/04/04 09:17:31;;;;;;;5.78;5.53;;;;;;;;;;4893513;29;20274;-82
2024/04/04 09:19:59;;;;;;;7.40;7.00;;;;;;;;;;4880087;29;20187;-82
2024/04/04 09:22:27;;;;;;;6.72;6.35;;;;;;;;;;4878442;29;20199;-82
2024/04/04 09:25:00;;;;;;;7.75;7.10;;;;;;;;;;4879833;29;20211;-82
2024/04/04 09:27:26;;;;;;;7.70;7.40;;;;;;;;;;4880238;29;20275;-81
2024/04/04 09:29:53;;;;;;;8.07;7.57;;;;;;;;;;4890683;29;20523;-81
2024/04/04 09:32:19;;;;;;;7.25;6.95;;;;;;;;;;4899182;29;20903;-83
2024/04/04 09:34:45;;;;;;;7.20;6.90;;;;;;;;;;4901503;29;20231;-82
2024/04/04 09:37:14;;;;;;;7.23;7.03;;;;;;;;;;4902202;29;20923;-82
2024/04/04 09:39:41;;;;;;;7.27;6.80;;;;;;;;;;4902889;29;20437;-82
2024/04/04 09:42:10;;;;;;;7.57;7.17;;;;;;;;;;4901654;29;20414;-84
2024/04/04 09:44:36;;;;;;;7.10;6.90;;;;;;;;;;4901485;29;20466;-83
2024/04/04 09:47:06;;;;;;;9.50;8.70;;;;;;;;;;4902045;29;20411;-83
2024/04/04 09:49:33;;;;;;;6.93;6.53;;;;;;;;;;4902105;29;20419;-84
2024/04/04 09:52:02;;;;;;;6.57;6.13;;;;;;;;;;4902507;29;20439;-84
2024/04/04 09:54:29;;;;;;;7.60;7.10;;;;;;;;;;4883632;29;20412;-81
2024/04/04 09:56:56;;;;;;;5.30;5.00;;;;;;;;;;4866353;29;20428;-86
2024/04/04 09:59:25;;;;;;;7.00;6.70;;;;;;;;;;4866304;29;20475;-83
2024/04/04 10:01:51;;;;;;;6.60;6.30;;;;;;;;;;4894339;29;20431;-84
2024/04/04 10:04:19;;;;;;;9.17;8.47;;;;;;;;;;4901875;29;20478;-86
2024/04/04 10:06:48;;;;;;;7.00;6.40;;;;;;;;;;4902317;29;20417;-85
2024/04/04 10:09:14;;;;;;;6.57;6.27;;;;;;;;;;4901015;29;20459;-83
2024/04/04 10:11:40;;;;;;;5.67;5.17;;;;;;;;;;4902377;29;20514;-90
2024/04/04 10:14:13;;;;;;;6.07;5.53;;;;;;;;;;4884131;29;20426;-87
2024/04/04 10:16:44;;;;;;;6.43;5.97;;;;;;;;;;4902142;29;20445;-85
2024/04/04 10:19:13;;;;;;;5.70;5.50;;;;;;;;;;4885324;29;20422;-86
2024/04/04 10:21:42;;;;;;;6.10;5.70;;;;;;;;;;4902007;29;20833;-85
2024/04/04 10:24:12;;;;;;;5.90;5.50;;;;;;;;;;4902526;29;20475;-84
2024/04/04 10:26:38;;;;;;;5.50;5.20;;;;;;;;;;4901257;29;20411;-84
2024/04/04 10:29:04;;;;;;;6.27;5.87;;;;;;;;;;4885146;29;20531;-84
2024/04/04 10:31:30;;;;;;;4.70;4.50;;;;;;;;;;4902085;29;20755;-87
2024/04/04 10:34:03;;;;;;;5.70;5.20;;;;;;;;;;4884971;29;20431;-89
2024/04/04 10:36:42;;;;;;;5.00;4.70;;;;;;;;;;4901713;29;20475;-83
2024/04/04 10:39:09;;;;;;;4.90;4.60;;;;;;;;;;4902254;29;20439;-85
2024/04/04 10:41:36;;;;;;;4.77;4.50;;;;;;;;;;4901324;29;20918;-84
2024/04/04 10:44:07;;;;;;;8.70;5.20;;;;;;;;;;4901567;29;20978;-85
2024/04/04 10:46:39;;;;;;;5.50;5.00;;;;;;;;;;4901029;29;20411;-83
2024/04/04 10:49:05;;;;;;;5.33;4.93;;;;;;;;;;4901157;29;20983;-84
2024/04/04 10:51:31;;;;;;;4.73;4.30;;;;;;;;;;4902150;29;20434;-84
2024/04/04 10:53:57;;;;;;;5.03;4.63;;;;;;;;;;4901937;29;20778;-82
2024/04/04 10:56:25;;;;;;;5.70;5.30;;;;;;;;;;4884177;29;20407;-86
2024/04/04 10:58:51;;;;;;;6.37;5.87;;;;;;;;;;4901329;29;20855;-80
2024/04/04 11:01:18;;;;;;;5.50;5.20;;;;;;;;;;4895181;29;20436;-85
2024/04/04 11:03:44;;;;;;;8.63;7.73;;;;;;;;;;4865586;29;20483;-85
2024/04/04 11:06:10;;;;;;;6.20;5.77;;;;;;;;;;4866137;29;20515;-85
2024/04/04 11:08:36;;;;;;;5.63;5.33;;;;;;;;;;4887563;29;20462;-87
2024/04/04 11:11:04;;;;;;;5.50;5.30;;;;;;;;;;4897466;29;20435;-82
2024/04/04 11:13:30;;;;;;;5.70;5.50;;;;;;;;;;4884439;29;20415;-83
2024/04/04 11:15:56;;;;;;;7.17;6.77;;;;;;;;;;4884498;29;20490;-82
2024/04/04 11:18:22;;;;;;;8.52;7.97;;;;;;;;;;4884252;29;20835;-87
2024/04/04 11:20:48;;;;;;;8.50;8.00;;;;;;;;;;4885184;29;20330;-82
2024/04/04 11:23:14;;;;;;;9.60;9.13;;;;;;;;;;4884639;29;20255;-80
2024/04/04 11:25:40;;;;;;;11.63;11.03;;;;;;;;;;4901129;29;20431;-83
2024/04/04 11:28:06;;;;;;;10.77;10.27;;;;;;;;;;4906832;29;20429;-83
2024/04/04 11:30:32;;;;;;;11.10;10.50;;;;;;;;;;4919570;29;20485;-81
2024/04/04 11:32:58;;;;;;;10.73;10.10;;;;;;;;;;4919515;29;20418;-83
2024/04/04 11:35:24;;;;;;;10.80;10.30;;;;;;;;;;4918546;29;20423;-83
2024/04/04 11:37:50;;;;;;;10.07;9.60;;;;;;;;;;4919526;29;20410;-84
2024/04/04 11:40:16;;;;;;;9.40;9.00;;;;;;;;;;4919795;29;20518;-84
2024/04/04 11:42:42;;;;;;;8.57;7.97;;;;;;;;;;4918484;29;20309;-83
2024/04/04 11:45:09;;;;;;;8.32;8.00;;;;;;;;;;4902700;29;20402;-84
2024/04/04 11:47:35;;;;;;;9.52;9.05;;;;;;;;;;4919312;29;20507;-84
2024/04/04 11:50:01;;;;;;;8.50;8.10;;;;;;;;;;4918953;29;20190;-82
2024/04/04 11:52:27;;;;;;;8.23;7.82;;;;;;;;;;4902397;29;20240;-85
2024/04/04 11:54:53;;;;;;;7.40;7.10;;;;;;;;;;4891069;29;20670;-83
2024/04/04 11:57:20;;;;;;;7.60;7.10;;;;;;;;;;4882232;29;20202;-82
2024/04/04 11:59:46;;;;;;;7.60;7.20;;;;;;;;;;4900322;29;20167;-83
2024/04/04 12:02:12;;;;;;;7.57;7.07;;;;;;;;;;4900414;29;20218;-83
2024/04/04 12:04:42;;;;;;;7.50;6.70;;;;;;;;;;4899696;29;20305;-82
2024/04/04 12:07:08;;;;;;;7.32;6.82;;;;;;;;;;4900646;29;20896;-81
2024/04/04 12:09:34;;;;;;;7.80;7.50;;;;;;;;;;4900060;29;20202;-83
2024/04/04 12:12:00;;;;;;;8.13;7.72;;;;;;;;;;4882060;29;20191;-84
2024/04/04 12:14:26;;;;;;;8.90;8.45;;;;;;;;;;4900210;29;20183;-83
2024/04/04 12:16:54;;;;;;;10.70;9.63;;;;;;;;;;4905031;29;20185;-81
2024/04/04 12:19:26;;;;;;;9.93;9.25;;;;;;;;;;4918021;29;20190;-83
2024/04/04 12:21:52;;;;;;;12.18;9.50;;;;;;;;;;4919032;29;20178;-82
2024/04/04 12:24:18;;;;;;;9.77;9.15;;;;;;;;;;4918675;29;20217;-84
2024/04/04 12:26:44;;;;;;;10.15;9.55;;;;;;;;;;4901140;29;20182;-84
2024/04/04 12:29:11;;;;;;;10.85;9.88;;;;;;;;;;4918848;29;20233;-85
2024/04/04 12:31:37;;;;;;;9.95;9.45;;;;;;;;;;4909618;29;20198;-84
2024/04/04 12:34:03;;;;;;;10.80;9.90;;;;;;;;;;4899337;29;20187;-85
2024/04/04 12:36:29;;;;;;;10.30;9.60;;;;;;;;;;4883410;29;20911;-84
2024/04/04 12:38:55;;;;;;;10.35;9.40;;;;;;;;;;4883454;29;20415;-83
2024/04/04 12:41:21;;;;;;;10.57;9.97;;;;;;;;;;4898304;29;20190;-83
2024/04/04 12:43:47;;;;;;;10.32;9.38;;;;;;;;;;4899408;29;20550;-83
2024/04/04 12:46:14;;;;;;;10.82;9.93;;;;;;;;;;4898407;29;20238;-85
2024/04/04 12:48:46;;;;;;;9.50;8.75;;;;;;;;;;4898498;29;20178;-84
2024/04/04 12:51:12;;;;;;;8.88;8.38;;;;;;;;;;4882344;29;20561;-84
2024/04/04 12:53:38;;;;;;;8.68;8.00;;;;;;;;;;4898975;29;20191;-83
2024/04/04 12:56:05;;;;;;;8.93;8.13;;;;;;;;;;4898480;29;20178;-85
2024/04/04 12:58:31;;;;;;;8.70;8.20;;;;;;;;;;4882607;29;20238;-85
2024/04/04 13:01:00;;;;;;;9.55;8.80;;;;;;;;;;4882828;29;20183;-84
2024/04/04 13:03:29;;;;;;;8.57;7.67;;;;;;;;;;4898272;29;20570;-85
2024/04/04 13:05:55;;;;;;;8.97;8.57;;;;;;;;;;4899890;29;20505;-82
2024/04/04 13:08:21;;;;;;;9.43;8.70;;;;;;;;;;4884639;29;20427;-85
2024/04/04 13:10:47;;;;;;;8.50;8.10;;;;;;;;;;4903849;29;20435;-84
2024/04/04 13:13:13;;;;;;;8.63;8.23;;;;;;;;;;4905112;29;20928;-88
2024/04/04 13:15:40;;;;;;;8.20;7.80;;;;;;;;;;4888946;29;20434;-86
2024/04/04 13:18:06;;;;;;;8.07;7.60;;;;;;;;;;4888777;29;20467;-86
2024/04/04 13:20:32;;;;;;;8.40;8.00;;;;;;;;;;4887857;29;20966;-85
2024/04/04 13:22:58;;;;;;;7.60;7.20;;;;;;;;;;4888998;29;20481;-85
2024/04/04 13:25:25;;;;;;;7.53;7.13;;;;;;;;;;4905683;29;20407;-86
2024/04/04 13:27:51;;;;;;;7.20;6.90;;;;;;;;;;4889022;29;20419;-85
2024/04/04 13:30:18;;;;;;;7.20;6.70;;;;;;;;;;4888235;29;20479;-86
2024/04/04 13:32:44;;;;;;;6.50;6.20;;;;;;;;;;4888992;29;20438;-88
2024/04/04 13:35:10;;;;;;;6.47;6.07;;;;;;;;;;4889553;29;20407;-87
2024/04/04 13:37:36;;;;;;;6.13;5.83;;;;;;;;;;4889059;29;20442;-87
2024/04/04 13:40:03;;;;;;;6.23;5.80;;;;;;;;;;4873681;29;20427;-85
2024/04/04 13:42:29;;;;;;;4.80;4.60;;;;;;;;;;4907054;29;20418;-85
2024/04/04 13:44:55;;;;;;;6.60;6.20;;;;;;;;;;4874511;29;20419;-87
2024/04/04 13:47:21;;;;;;;6.20;5.90;;;;;;;;;;4856357;29;20428;-88
2024/04/04 13:49:47;;;;;;;4.40;4.20;;;;;;;;;;4857406;29;20484;-88
2024/04/04 13:52:14;;;;;;;5.93;5.33;;;;;;;;;;4856559;29;20475;-85
2024/04/04 13:54:40;;;;;;;6.37;5.77;;;;;;;;;;4871598;29;20420;-87
2024/04/04 13:57:06;;;;;;;5.23;4.93;;;;;;;;;;4893202;29;20427;-88
2024/04/04 13:59:32;;;;;;;4.70;4.40;;;;;;;;;;4911705;29;20410;-91
2024/04/04 14:02:08;;;;;;;5.33;5.07;;;;;;;;;;4908923;29;20417;-87
2024/04/04 14:04:35;;;;;;;5.40;4.67;;;;;;;;;;4926044;29;20464;-88
2024/04/04 14:07:03;;;;;;;5.67;5.27;;;;;;;;;;4926844;29;20454;-86
2024/04/04 14:09:29;;;;;;;5.53;5.03;;;;;;;;;;4925771;29;20410;-88
2024/04/04 14:11:55;;;;;;;5.20;4.90;;;;;;;;;;4909532;29;20417;-87
2024/04/04 14:14:21;;;;;;;6.20;5.60;;;;;;;;;;4909723;29;20859;-87
2024/04/04 14:16:47;;;;;;;5.27;4.90;;;;;;;;;;4909997;29;20428;-87
2024/04/04 14:19:13;;;;;;;5.33;4.90;;;;;;;;;;4913644;29;20833;-87
2024/04/04 14:21:39;;;;;;;5.10;4.80;;;;;;;;;;4909406;29;20478;-84
2024/04/04 14:24:05;;;;;;;6.80;5.00;;;;;;;;;;4924533;29;20470;-85
2024/04/04 14:26:31;;;;;;;5.30;4.80;;;;;;;;;;4923050;29;20830;-85
2024/04/04 14:28:57;;;;;;;5.30;4.90;;;;;;;;;;4908965;29;20463;-86
2024/04/04 14:31:24;;;;;;;4.40;4.00;;;;;;;;;;4855046;29;20515;-86
2024/04/04 14:33:50;;;;;;;6.37;5.17;;;;;;;;;;4883268;29;20503;-85
2024/04/04 14:36:16;;;;;;;6.20;4.77;;;;;;;;;;4867459;29;20552;-85